createdAt,value
2017-12-20T00:00:06.334Z,1028.37
2017-12-20T00:01:15.282Z,1028.39
2017-12-20T00:02:24.752Z,1028.37
2017-12-20T00:03:33.749Z,1028.35
2017-12-20T00:04:42.691Z,1028.37
2017-12-20T00:05:52.179Z,1028.39
2017-12-20T00:07:01.471Z,1028.33
2017-12-20T00:08:10.430Z,1028.36
2017-12-20T00:09:19.104Z,1028.36
2017-12-20T00:10:28.572Z,1028.38
2017-12-20T00:11:38.305Z,1028.36
2017-12-20T00:12:47.763Z,1028.35
2017-12-20T00:13:56.710Z,1028.38
2017-12-20T00:15:05.699Z,1028.36
2017-12-20T00:16:14.892Z,1028.36
2017-12-20T00:17:24.102Z,1028.35
2017-12-20T00:18:33.834Z,1028.42
2017-12-20T00:19:42.774Z,1028.42
2017-12-20T00:20:51.722Z,1028.39
2017-12-20T00:22:00.917Z,1028.37
2017-12-20T00:23:09.877Z,1028.34
2017-12-20T00:24:19.098Z,1028.38
2017-12-20T00:25:28.339Z,1028.35
2017-12-20T00:26:37.297Z,1028.33
2017-12-20T00:27:45.992Z,1028.32
2017-12-20T00:28:54.979Z,1028.33
2017-12-20T00:30:04.456Z,1028.26
2017-12-20T00:31:13.674Z,1028.24
2017-12-20T00:32:22.357Z,1028.21
2017-12-20T00:33:31.322Z,1028.19
2017-12-20T00:34:41.117Z,1028.19
2017-12-20T00:35:50.533Z,1028.19
2017-12-20T00:36:59.806Z,1028.17
2017-12-20T00:38:08.495Z,1028.18
2017-12-20T00:39:17.494Z,1028.12
2017-12-20T00:40:26.465Z,1028.11
2017-12-20T00:41:35.688Z,1028.08
2017-12-20T00:42:45.152Z,1028.04
2017-12-20T00:43:54.384Z,1028.08
2017-12-20T00:45:03.632Z,1028.05
2017-12-20T00:46:12.567Z,1028.04
2017-12-20T00:47:21.515Z,1028.06
2017-12-20T00:48:30.196Z,1028
2017-12-20T00:49:39.705Z,1027.98
2017-12-20T00:50:48.653Z,1028.02
2017-12-20T00:51:58.115Z,1027.97
2017-12-20T00:53:07.065Z,1027.99
2017-12-20T00:54:16.537Z,1027.96
2017-12-20T00:55:25.217Z,1027.99
2017-12-20T00:56:34.701Z,1027.96
2017-12-20T00:57:43.684Z,1027.91
2017-12-20T00:58:52.894Z,1027.96
2017-12-20T01:00:02.401Z,1027.98
2017-12-20T01:01:11.101Z,1028.02
2017-12-20T01:02:20.041Z,1027.99
2017-12-20T01:03:28.724Z,1028.04
2017-12-20T01:04:37.687Z,1028.06
2017-12-20T01:05:47.170Z,1028.06
2017-12-20T01:06:56.111Z,1028.04
2017-12-20T01:08:05.582Z,1028.05
2017-12-20T01:09:14.826Z,1028.04
2017-12-20T01:10:23.529Z,1028.06
2017-12-20T01:11:32.724Z,1028.11
2017-12-20T01:12:41.659Z,1028.06
2017-12-20T01:13:51.430Z,1028.05
2017-12-20T01:15:01.148Z,1028.09
2017-12-20T01:16:10.602Z,1028.1
2017-12-20T01:17:19.812Z,1028.13
2017-12-20T01:18:29.016Z,1028.2
2017-12-20T01:19:38.257Z,1028.22
2017-12-20T01:20:47.739Z,1028.27
2017-12-20T01:21:56.474Z,1028.24
2017-12-20T01:23:05.950Z,1028.22
2017-12-20T01:24:15.494Z,1028.23
2017-12-20T01:25:24.747Z,1028.26
2017-12-20T01:26:34.494Z,1028.26
2017-12-20T01:27:43.688Z,1028.26
2017-12-20T01:28:52.883Z,1028.23
2017-12-20T01:30:02.350Z,1028.27
2017-12-20T01:31:11.563Z,1028.3
2017-12-20T01:32:20.563Z,1028.31
2017-12-20T01:33:30.027Z,1028.33
2017-12-20T01:34:39.813Z,1028.38
2017-12-20T01:35:48.768Z,1028.35
2017-12-20T01:36:57.979Z,1028.37
2017-12-20T01:38:07.078Z,1028.42
2017-12-20T01:39:16.012Z,1028.4
2017-12-20T01:40:25.307Z,1028.38
2017-12-20T01:41:34.299Z,1028.4
2017-12-20T01:42:43.849Z,1028.4
2017-12-20T01:43:52.806Z,1028.36
2017-12-20T01:45:02.068Z,1028.39
2017-12-20T01:46:11.536Z,1028.4
2017-12-20T01:47:20.276Z,1028.37
2017-12-20T01:48:29.786Z,1028.31
2017-12-20T01:49:39.005Z,1028.33
2017-12-20T01:50:47.946Z,1028.29
2017-12-20T01:51:57.422Z,1028.28
2017-12-20T01:53:06.695Z,1028.22
2017-12-20T01:54:16.283Z,1028.22
2017-12-20T01:55:25.755Z,1028.21
2017-12-20T01:56:34.707Z,1028.24
2017-12-20T01:57:43.675Z,1028.21
2017-12-20T01:58:52.912Z,1028.2
2017-12-20T02:00:02.114Z,1028.22
2017-12-20T02:01:11.573Z,1028.21
2017-12-20T02:02:20.250Z,1028.23
2017-12-20T02:03:29.224Z,1028.21
2017-12-20T02:04:38.688Z,1028.21
2017-12-20T02:05:47.660Z,1028.21
2017-12-20T02:06:56.335Z,1028.2
2017-12-20T02:08:05.550Z,1028.14
2017-12-20T02:09:14.231Z,1028.16
2017-12-20T02:10:23.239Z,1028.1
2017-12-20T02:11:32.178Z,1028.1
2017-12-20T02:12:41.676Z,1028.09
2017-12-20T02:13:50.352Z,1028.07
2017-12-20T02:14:59.337Z,1028.03
2017-12-20T02:16:09.104Z,1027.99
2017-12-20T02:17:18.313Z,1027.99
2017-12-20T02:18:27.834Z,1028.01
2017-12-20T02:19:36.790Z,1027.98
2017-12-20T02:20:45.996Z,1027.98
2017-12-20T02:21:54.929Z,1027.98
2017-12-20T02:23:04.405Z,1028
2017-12-20T02:24:13.609Z,1027.99
2017-12-20T02:25:22.810Z,1027.98
2017-12-20T02:26:32.015Z,1027.96
2017-12-20T02:27:40.966Z,1027.91
2017-12-20T02:28:49.960Z,1027.95
2017-12-20T02:29:59.918Z,1027.95
2017-12-20T02:31:08.850Z,1027.96
2017-12-20T02:32:18.583Z,1027.92
2017-12-20T02:33:28.055Z,1027.99
2017-12-20T02:34:37.261Z,1027.93
2017-12-20T02:35:46.475Z,1027.96
2017-12-20T02:36:55.437Z,1027.98
2017-12-20T02:38:04.397Z,1028.01
2017-12-20T02:39:13.885Z,1028.03
2017-12-20T02:40:22.835Z,1028.03
2017-12-20T02:41:31.786Z,1028.03
2017-12-20T02:42:40.991Z,1028.04
2017-12-20T02:43:50.504Z,1028.02
2017-12-20T02:44:59.729Z,1028.01
2017-12-20T02:46:08.709Z,1028
2017-12-20T02:47:17.656Z,1027.95
2017-12-20T02:48:26.375Z,1027.94
2017-12-20T02:49:35.837Z,1027.89
2017-12-20T02:50:44.805Z,1027.85
2017-12-20T02:51:54.035Z,1027.81
2017-12-20T02:53:03.812Z,1027.79
2017-12-20T02:54:12.771Z,1027.79
2017-12-20T02:55:21.716Z,1027.76
2017-12-20T02:56:30.958Z,1027.81
2017-12-20T02:57:40.177Z,1027.78
2017-12-20T02:58:49.148Z,1027.75
2017-12-20T02:59:58.620Z,1027.79
2017-12-20T03:01:07.597Z,1027.8
2017-12-20T03:02:16.533Z,1027.78
2017-12-20T03:03:25.483Z,1027.79
2017-12-20T03:04:34.434Z,1027.77
2017-12-20T03:05:43.663Z,1027.77
2017-12-20T03:06:52.375Z,1027.84
2017-12-20T03:08:02.113Z,1027.81
2017-12-20T03:09:11.100Z,1027.79
2017-12-20T03:10:20.303Z,1027.81
2017-12-20T03:11:29.522Z,1027.83
2017-12-20T03:12:38.988Z,1027.83
2017-12-20T03:13:48.454Z,1027.86
2017-12-20T03:14:57.945Z,1027.85
2017-12-20T03:16:07.157Z,1027.87
2017-12-20T03:17:16.363Z,1027.88
2017-12-20T03:18:25.577Z,1027.86
2017-12-20T03:19:34.799Z,1027.88
2017-12-20T03:20:43.480Z,1027.89
2017-12-20T03:21:52.457Z,1027.91
2017-12-20T03:23:01.413Z,1027.89
2017-12-20T03:24:11.149Z,1027.92
2017-12-20T03:25:20.123Z,1027.91
2017-12-20T03:26:28.876Z,1027.9
2017-12-20T03:27:37.770Z,1027.83
2017-12-20T03:28:46.978Z,1027.82
2017-12-20T03:29:55.941Z,1027.74
2017-12-20T03:31:05.183Z,1027.77
2017-12-20T03:32:13.890Z,1027.72
2017-12-20T03:33:23.372Z,1027.69
2017-12-20T03:34:32.860Z,1027.67
2017-12-20T03:35:42.149Z,1027.63
2017-12-20T03:36:51.090Z,1027.62
2017-12-20T03:38:00.305Z,1027.58
2017-12-20T03:39:09.239Z,1027.63
2017-12-20T03:40:18.449Z,1027.65
2017-12-20T03:41:27.935Z,1027.67
2017-12-20T03:42:37.391Z,1027.66
2017-12-20T03:43:46.599Z,1027.68
2017-12-20T03:44:56.341Z,1027.69
2017-12-20T03:46:05.281Z,1027.7
2017-12-20T03:47:14.504Z,1027.64
2017-12-20T03:48:23.459Z,1027.65
2017-12-20T03:49:32.141Z,1027.65
2017-12-20T03:50:40.824Z,1027.61
2017-12-20T03:51:49.776Z,1027.59
2017-12-20T03:52:58.724Z,1027.58
2017-12-20T03:54:07.687Z,1027.62
2017-12-20T03:55:16.386Z,1027.67
2017-12-20T03:56:25.332Z,1027.62
2017-12-20T03:57:34.583Z,1027.55
2017-12-20T03:58:43.789Z,1027.56
2017-12-20T03:59:52.731Z,1027.52
2017-12-20T04:01:01.978Z,1027.55
2017-12-20T04:02:11.189Z,1027.54
2017-12-20T04:03:20.398Z,1027.55
2017-12-20T04:04:29.360Z,1027.6
2017-12-20T04:05:38.594Z,1027.61
2017-12-20T04:06:47.880Z,1027.64
2017-12-20T04:07:57.392Z,1027.61
2017-12-20T04:09:06.354Z,1027.6
2017-12-20T04:10:15.564Z,1027.64
2017-12-20T04:11:24.260Z,1027.65
2017-12-20T04:12:33.463Z,1027.67
2017-12-20T04:13:42.437Z,1027.66
2017-12-20T04:14:51.927Z,1027.64
2017-12-20T04:16:00.867Z,1027.68
2017-12-20T04:17:09.825Z,1027.67
2017-12-20T04:18:19.021Z,1027.69
2017-12-20T04:19:27.955Z,1027.75
2017-12-20T04:20:36.998Z,1027.75
2017-12-20T04:21:46.469Z,1027.79
2017-12-20T04:22:55.671Z,1027.77
2017-12-20T04:24:04.917Z,1027.8
2017-12-20T04:25:13.605Z,1027.78
2017-12-20T04:26:23.085Z,1027.76
2017-12-20T04:27:32.315Z,1027.77
2017-12-20T04:28:41.280Z,1027.75
2017-12-20T04:29:50.225Z,1027.81
2017-12-20T04:30:59.176Z,1027.86
2017-12-20T04:32:08.121Z,1027.83
2017-12-20T04:33:17.064Z,1027.83
2017-12-20T04:34:26.000Z,1027.8
2017-12-20T04:35:34.996Z,1027.8
2017-12-20T04:36:44.470Z,1027.8
2017-12-20T04:37:53.427Z,1027.76
2017-12-20T04:39:02.409Z,1027.77
2017-12-20T04:40:11.096Z,1027.82
2017-12-20T04:41:20.301Z,1027.83
2017-12-20T04:42:29.782Z,1027.84
2017-12-20T04:43:38.472Z,1027.85
2017-12-20T04:44:47.436Z,1027.82
2017-12-20T04:45:56.374Z,1027.8
2017-12-20T04:47:05.306Z,1027.74
2017-12-20T04:48:14.251Z,1027.76
2017-12-20T04:49:23.210Z,1027.74
2017-12-20T04:50:32.176Z,1027.77
2017-12-20T04:51:41.127Z,1027.79
2017-12-20T04:52:50.374Z,1027.75
2017-12-20T04:53:59.358Z,1027.77
2017-12-20T04:55:08.618Z,1027.79
2017-12-20T04:56:18.344Z,1027.8
2017-12-20T04:57:27.579Z,1027.81
2017-12-20T04:58:36.538Z,1027.76
2017-12-20T04:59:45.732Z,1027.75
2017-12-20T05:00:55.222Z,1027.75
2017-12-20T05:02:04.161Z,1027.82
2017-12-20T05:03:13.124Z,1027.77
2017-12-20T05:04:22.069Z,1027.78
2017-12-20T05:05:31.792Z,1027.77
2017-12-20T05:06:41.280Z,1027.77
2017-12-20T05:07:50.520Z,1027.78
2017-12-20T05:08:59.790Z,1027.81
2017-12-20T05:10:09.534Z,1027.79
2017-12-20T05:11:19.016Z,1027.75
2017-12-20T05:12:28.226Z,1027.75
2017-12-20T05:13:37.433Z,1027.77
2017-12-20T05:14:46.392Z,1027.71
2017-12-20T05:15:56.133Z,1027.72
2017-12-20T05:17:05.606Z,1027.69
2017-12-20T05:18:15.084Z,1027.73
2017-12-20T05:19:24.279Z,1027.76
2017-12-20T05:20:33.513Z,1027.78
2017-12-20T05:21:42.721Z,1027.8
2017-12-20T05:22:51.420Z,1027.82
2017-12-20T05:24:00.378Z,1027.81
2017-12-20T05:25:09.335Z,1027.8
2017-12-20T05:26:18.584Z,1027.8
2017-12-20T05:27:27.859Z,1027.85
2017-12-20T05:28:37.066Z,1027.85
2017-12-20T05:29:46.534Z,1027.82
2017-12-20T05:30:55.245Z,1027.85
2017-12-20T05:32:04.265Z,1027.82
2017-12-20T05:33:13.210Z,1027.83
2017-12-20T05:34:22.143Z,1027.83
2017-12-20T05:35:31.397Z,1027.86
2017-12-20T05:36:40.601Z,1027.87
2017-12-20T05:37:49.582Z,1027.91
2017-12-20T05:38:59.122Z,1027.96
2017-12-20T05:40:08.065Z,1027.93
2017-12-20T05:41:17.272Z,1027.95
2017-12-20T05:42:26.493Z,1027.94
2017-12-20T05:43:35.715Z,1027.98
2017-12-20T05:44:44.915Z,1027.98
2017-12-20T05:45:54.121Z,1027.94
2017-12-20T05:47:03.589Z,1027.95
2017-12-20T05:48:12.527Z,1027.99
2017-12-20T05:49:21.747Z,1027.99
2017-12-20T05:50:30.960Z,1028.02
2017-12-20T05:51:39.897Z,1028.01
2017-12-20T05:52:49.109Z,1028.02
2017-12-20T05:53:58.316Z,1028.03
2017-12-20T05:55:08.050Z,1028.03
2017-12-20T05:56:17.249Z,1028.04
2017-12-20T05:57:26.276Z,1028
2017-12-20T05:58:35.247Z,1027.96
2017-12-20T05:59:44.978Z,1027.97
2017-12-20T06:00:53.923Z,1027.94
2017-12-20T06:02:03.402Z,1027.92
2017-12-20T06:03:12.628Z,1027.93
2017-12-20T06:04:21.860Z,1027.92
2017-12-20T06:05:31.049Z,1027.94
2017-12-20T06:06:40.531Z,1027.94
2017-12-20T06:07:49.760Z,1027.93
2017-12-20T06:08:58.740Z,1027.95
2017-12-20T06:10:08.240Z,1027.91
2017-12-20T06:11:17.448Z,1027.88
2017-12-20T06:12:26.662Z,1027.86
2017-12-20T06:13:35.628Z,1027.88
2017-12-20T06:14:44.891Z,1027.85
2017-12-20T06:15:53.520Z,1027.86
2017-12-20T06:17:02.480Z,1027.91
2017-12-20T06:18:11.202Z,1027.78
2017-12-20T06:19:20.666Z,1027.89
2017-12-20T06:20:29.613Z,1027.9
2017-12-20T06:21:38.868Z,1027.91
2017-12-20T06:22:47.560Z,1027.93
2017-12-20T06:23:57.030Z,1027.94
2017-12-20T06:25:06.049Z,1027.98
2017-12-20T06:26:15.299Z,1027.99
2017-12-20T06:27:24.062Z,1027.97
2017-12-20T06:28:33.001Z,1027.99
2017-12-20T06:29:41.969Z,1027.98
2017-12-20T06:30:50.914Z,1028.03
2017-12-20T06:31:59.874Z,1028.04
2017-12-20T06:33:08.849Z,1027.98
2017-12-20T06:34:17.808Z,1027.99
2017-12-20T06:35:26.755Z,1027.98
2017-12-20T06:36:36.212Z,1027.91
2017-12-20T06:37:45.935Z,1027.9
2017-12-20T06:38:54.648Z,1027.88
2017-12-20T06:40:03.594Z,1027.92
2017-12-20T06:41:12.814Z,1027.88
2017-12-20T06:42:22.286Z,1027.89
2017-12-20T06:43:31.261Z,1027.91
2017-12-20T06:44:41.005Z,1027.89
2017-12-20T06:45:50.221Z,1027.93
2017-12-20T06:46:59.155Z,1027.87
2017-12-20T06:48:08.095Z,1027.88
2017-12-20T06:49:17.141Z,1027.92
2017-12-20T06:50:26.097Z,1027.92
2017-12-20T06:51:35.049Z,1027.91
2017-12-20T06:52:44.265Z,1027.93
2017-12-20T06:53:53.729Z,1027.92
2017-12-20T06:55:02.938Z,1027.97
2017-12-20T06:56:11.907Z,1027.96
2017-12-20T06:57:20.862Z,1027.98
2017-12-20T06:58:30.084Z,1027.99
2017-12-20T06:59:39.551Z,1027.95
2017-12-20T07:00:49.021Z,1027.98
2017-12-20T07:01:57.706Z,1028
2017-12-20T07:03:07.179Z,1027.96
2017-12-20T07:04:16.412Z,1027.91
2017-12-20T07:05:25.359Z,1027.9
2017-12-20T07:06:34.567Z,1027.84
2017-12-20T07:07:43.244Z,1027.88
2017-12-20T07:08:52.185Z,1027.89
2017-12-20T07:10:01.425Z,1027.87
2017-12-20T07:11:10.674Z,1027.9
2017-12-20T07:12:19.884Z,1027.88
2017-12-20T07:13:28.820Z,1027.9
2017-12-20T07:14:38.045Z,1027.86
2017-12-20T07:15:46.985Z,1027.89
2017-12-20T07:16:55.950Z,1027.9
2017-12-20T07:18:05.148Z,1027.97
2017-12-20T07:19:14.877Z,1027.98
2017-12-20T07:20:23.823Z,1028.02
2017-12-20T07:21:33.026Z,1028.02
2017-12-20T07:22:41.973Z,1028.04
2017-12-20T07:23:50.928Z,1028.07
2017-12-20T07:25:00.146Z,1028.03
2017-12-20T07:26:08.834Z,1028.03
2017-12-20T07:27:18.054Z,1028.04
2017-12-20T07:28:27.278Z,1028.05
2017-12-20T07:29:36.238Z,1028.04
2017-12-20T07:30:45.474Z,1028.09
2017-12-20T07:31:54.968Z,1028.07
2017-12-20T07:33:03.664Z,1028.14
2017-12-20T07:34:12.616Z,1028.13
2017-12-20T07:35:21.578Z,1028.2
2017-12-20T07:36:30.583Z,1028.21
2017-12-20T07:37:39.308Z,1028.18
2017-12-20T07:38:49.040Z,1028.15
2017-12-20T07:39:58.540Z,1028.19
2017-12-20T07:41:07.503Z,1028.22
2017-12-20T07:42:16.777Z,1028.2
2017-12-20T07:43:26.034Z,1028.2
2017-12-20T07:44:35.015Z,1028.18
2017-12-20T07:45:43.968Z,1028.15
2017-12-20T07:46:52.928Z,1028.13
2017-12-20T07:48:02.132Z,1028.13
2017-12-20T07:49:11.186Z,1028.14
2017-12-20T07:50:21.211Z,1028.15
2017-12-20T07:51:30.767Z,1028.19
2017-12-20T07:52:39.705Z,1028.2
2017-12-20T07:53:48.677Z,1028.24
2017-12-20T07:54:57.885Z,1028.26
2017-12-20T07:56:07.122Z,1028.25
2017-12-20T07:57:16.350Z,1028.25
2017-12-20T07:58:25.556Z,1028.2
2017-12-20T07:59:34.495Z,1028.24
2017-12-20T08:00:43.206Z,1028.24
2017-12-20T08:01:52.224Z,1028.26
2017-12-20T08:03:01.193Z,1028.24
2017-12-20T08:04:10.159Z,1028.25
2017-12-20T08:05:19.653Z,1028.22
2017-12-20T08:06:28.865Z,1028.24
2017-12-20T08:07:38.082Z,1028.26
2017-12-20T08:08:47.038Z,1028.26
2017-12-20T08:09:56.002Z,1028.28
2017-12-20T08:11:05.220Z,1028.25
2017-12-20T08:12:13.913Z,1028.27
2017-12-20T08:13:23.121Z,1028.29
2017-12-20T08:14:32.339Z,1028.28
2017-12-20T08:15:41.836Z,1028.29
2017-12-20T08:16:50.534Z,1028.3
2017-12-20T08:17:59.499Z,1028.31
2017-12-20T08:19:08.456Z,1028.3
2017-12-20T08:20:17.724Z,1028.31
2017-12-20T08:21:26.634Z,1028.31
2017-12-20T08:22:36.652Z,1028.28
2017-12-20T08:23:45.921Z,1028.27
2017-12-20T08:24:55.415Z,1028.32
2017-12-20T08:26:04.897Z,1028.32
2017-12-20T08:27:13.858Z,1028.33
2017-12-20T08:28:23.160Z,1028.36
2017-12-20T08:29:32.656Z,1028.38
2017-12-20T08:30:41.600Z,1028.45
2017-12-20T08:31:50.829Z,1028.45
2017-12-20T08:32:59.779Z,1028.45
2017-12-20T08:34:09.266Z,1028.48
2017-12-20T08:35:18.214Z,1028.48
2017-12-20T08:36:27.176Z,1028.5
2017-12-20T08:37:36.396Z,1028.51
2017-12-20T08:38:45.633Z,1028.53
2017-12-20T08:39:54.878Z,1028.58
2017-12-20T08:41:03.841Z,1028.53
2017-12-20T08:42:13.633Z,1028.56
2017-12-20T08:43:22.638Z,1028.53
2017-12-20T08:44:31.612Z,1028.55
2017-12-20T08:45:40.586Z,1028.56
2017-12-20T08:46:50.128Z,1028.61
2017-12-20T08:47:59.427Z,1028.59
2017-12-20T08:49:08.125Z,1028.59
2017-12-20T08:50:17.336Z,1028.61
2017-12-20T08:51:26.558Z,1028.63
2017-12-20T08:52:35.812Z,1028.63
2017-12-20T08:53:45.032Z,1028.63
2017-12-20T08:54:53.727Z,1028.68
2017-12-20T08:56:02.923Z,1028.63
2017-12-20T08:57:11.852Z,1028.7
2017-12-20T08:58:20.832Z,1028.69
2017-12-20T08:59:30.100Z,1028.73
2017-12-20T09:00:39.068Z,1028.72
2017-12-20T09:01:48.577Z,1028.75
2017-12-20T09:02:57.808Z,1028.75
2017-12-20T09:04:07.276Z,1028.71
2017-12-20T09:05:15.962Z,1028.72
2017-12-20T09:06:24.660Z,1028.7
2017-12-20T09:07:34.277Z,1028.72
2017-12-20T09:08:43.519Z,1028.78
2017-12-20T09:09:52.477Z,1028.76
2017-12-20T09:11:01.437Z,1028.82
2017-12-20T09:12:10.994Z,1028.87
2017-12-20T09:13:20.781Z,1028.86
2017-12-20T09:14:30.118Z,1028.87
2017-12-20T09:15:39.080Z,1028.9
2017-12-20T09:16:48.058Z,1028.89
2017-12-20T09:17:57.811Z,1028.92
2017-12-20T09:19:07.054Z,1028.93
2017-12-20T09:20:16.304Z,1028.94
2017-12-20T09:21:25.522Z,1028.94
2017-12-20T09:22:34.484Z,1028.91
2017-12-20T09:23:44.220Z,1028.93
2017-12-20T09:24:52.903Z,1028.95
2017-12-20T09:26:01.867Z,1029
2017-12-20T09:27:10.833Z,1029
2017-12-20T09:28:19.794Z,1029.02
2017-12-20T09:29:29.536Z,1029.07
2017-12-20T09:30:39.017Z,1029.1
2017-12-20T09:31:47.962Z,1029.11
2017-12-20T09:32:56.986Z,1029.13
2017-12-20T09:34:05.945Z,1029.1
2017-12-20T09:35:14.640Z,1029.13
2017-12-20T09:36:23.329Z,1029.16
2017-12-20T09:37:32.343Z,1029.13
2017-12-20T09:38:41.560Z,1029.14
2017-12-20T09:39:50.800Z,1029.19
2017-12-20T09:41:00.012Z,1029.21
2017-12-20T09:42:09.268Z,1029.23
2017-12-20T09:43:18.205Z,1029.23
2017-12-20T09:44:27.418Z,1029.21
2017-12-20T09:45:36.639Z,1029.23
2017-12-20T09:46:46.177Z,1029.26
2017-12-20T09:47:55.423Z,1029.27
2017-12-20T09:49:04.631Z,1029.29
2017-12-20T09:50:13.850Z,1029.3
2017-12-20T09:51:23.379Z,1029.29
2017-12-20T09:52:32.603Z,1029.27
2017-12-20T09:53:41.307Z,1029.27
2017-12-20T09:54:51.072Z,1029.28
2017-12-20T09:56:00.033Z,1029.28
2017-12-20T09:57:09.070Z,1029.34
2017-12-20T09:58:17.776Z,1029.3
2017-12-20T09:59:26.762Z,1029.36
2017-12-20T10:00:35.752Z,1029.33
2017-12-20T10:01:45.310Z,1029.33
2017-12-20T10:02:54.566Z,1029.33
2017-12-20T10:04:03.805Z,1029.32
2017-12-20T10:05:13.032Z,1029.29
2017-12-20T10:06:22.518Z,1029.3
2017-12-20T10:07:31.756Z,1029.36
2017-12-20T10:08:40.726Z,1029.33
2017-12-20T10:09:49.677Z,1029.32
2017-12-20T10:10:58.907Z,1029.32
2017-12-20T10:12:07.923Z,1029.29
2017-12-20T10:13:17.158Z,1029.28
2017-12-20T10:14:26.367Z,1029.29
2017-12-20T10:15:35.311Z,1029.26
2017-12-20T10:16:44.519Z,1029.27
2017-12-20T10:17:54.010Z,1029.26
2017-12-20T10:19:03.229Z,1029.29
2017-12-20T10:20:12.702Z,1029.24
2017-12-20T10:21:21.536Z,1029.24
2017-12-20T10:22:30.812Z,1029.26
2017-12-20T10:23:39.781Z,1029.27
2017-12-20T10:24:49.049Z,1029.27
2017-12-20T10:25:58.273Z,1029.26
2017-12-20T10:27:06.970Z,1029.24
2017-12-20T10:28:15.999Z,1029.22
2017-12-20T10:29:25.232Z,1029.21
2017-12-20T10:30:34.228Z,1029.17
2017-12-20T10:31:42.939Z,1029.11
2017-12-20T10:32:52.165Z,1029.1
2017-12-20T10:34:01.379Z,1029.06
2017-12-20T10:35:10.327Z,1029.05
2017-12-20T10:36:19.906Z,1028.97
2017-12-20T10:37:29.385Z,1028.98
2017-12-20T10:38:38.884Z,1028.98
2017-12-20T10:39:47.583Z,1028.95
2017-12-20T10:40:56.827Z,1028.92
2017-12-20T10:42:05.810Z,1028.91
2017-12-20T10:43:15.056Z,1028.92
2017-12-20T10:44:24.014Z,1028.93
2017-12-20T10:45:33.234Z,1028.96
2017-12-20T10:46:42.197Z,1028.93
2017-12-20T10:47:51.435Z,1028.92
2017-12-20T10:49:00.659Z,1028.94
2017-12-20T10:50:09.881Z,1028.94
2017-12-20T10:51:19.339Z,1028.95
2017-12-20T10:52:28.810Z,1028.98
2017-12-20T10:53:37.527Z,1029.02
2017-12-20T10:54:46.499Z,1029.02
2017-12-20T10:55:55.972Z,1028.98
2017-12-20T10:57:05.221Z,1029
2017-12-20T10:58:14.173Z,1028.99
2017-12-20T10:59:23.130Z,1029.01
2017-12-20T11:00:32.350Z,1029
2017-12-20T11:01:41.323Z,1029.06
2017-12-20T11:02:50.014Z,1029.04
2017-12-20T11:03:59.505Z,1029.03
2017-12-20T11:05:08.534Z,1029.03
2017-12-20T11:06:17.220Z,1029.03
2017-12-20T11:07:26.432Z,1029.06
2017-12-20T11:08:35.663Z,1029.09
2017-12-20T11:09:44.965Z,1029.08
2017-12-20T11:10:53.827Z,1029.03
2017-12-20T11:12:02.812Z,1029.05
2017-12-20T11:13:11.502Z,1029.01
2017-12-20T11:14:20.444Z,1029.01
2017-12-20T11:15:29.145Z,1029
2017-12-20T11:16:38.359Z,1029.03
2017-12-20T11:17:47.341Z,1029.02
2017-12-20T11:18:56.373Z,1028.98
2017-12-20T11:20:05.340Z,1028.98
2017-12-20T11:21:14.814Z,1029.01
2017-12-20T11:22:24.052Z,1029
2017-12-20T11:23:33.260Z,1029.03
2017-12-20T11:24:42.469Z,1028.95
2017-12-20T11:25:51.438Z,1028.99
2017-12-20T11:27:00.690Z,1028.96
2017-12-20T11:28:09.373Z,1028.97
2017-12-20T11:29:18.597Z,1028.96
2017-12-20T11:30:27.549Z,1028.99
2017-12-20T11:31:36.772Z,1028.97
2017-12-20T11:32:45.987Z,1028.98
2017-12-20T11:33:55.208Z,1028.96
2017-12-20T11:35:04.157Z,1028.97
2017-12-20T11:36:13.624Z,1028.93
2017-12-20T11:37:22.847Z,1028.91
2017-12-20T11:38:32.055Z,1028.91
2017-12-20T11:39:41.259Z,1028.91
2017-12-20T11:40:49.936Z,1028.92
2017-12-20T11:41:59.144Z,1028.92
2017-12-20T11:43:08.158Z,1028.9
2017-12-20T11:44:17.143Z,1028.9
2017-12-20T11:45:26.358Z,1028.93
2017-12-20T11:46:36.194Z,1028.97
2017-12-20T11:47:45.421Z,1028.94
2017-12-20T11:48:54.379Z,1028.92
2017-12-20T11:50:03.609Z,1028.91
2017-12-20T11:51:12.918Z,1028.89
2017-12-20T11:52:22.133Z,1028.89
2017-12-20T11:53:31.350Z,1028.91
2017-12-20T11:54:41.130Z,1028.85
2017-12-20T11:55:50.618Z,1028.84
2017-12-20T11:56:59.560Z,1028.86
2017-12-20T11:58:08.561Z,1028.84
2017-12-20T11:59:18.035Z,1028.84
2017-12-20T12:00:27.023Z,1028.87
2017-12-20T12:01:36.006Z,1028.86
2017-12-20T12:02:44.965Z,1028.83
2017-12-20T12:03:53.668Z,1028.85
2017-12-20T12:05:02.630Z,1028.85
2017-12-20T12:06:11.603Z,1028.83
2017-12-20T12:07:20.551Z,1028.79
2017-12-20T12:08:29.529Z,1028.76
2017-12-20T12:09:38.487Z,1028.76
2017-12-20T12:10:47.700Z,1028.77
2017-12-20T12:11:56.915Z,1028.71
2017-12-20T12:13:06.149Z,1028.75
2017-12-20T12:14:15.113Z,1028.75
2017-12-20T12:15:23.833Z,1028.76
2017-12-20T12:16:33.063Z,1028.75
2017-12-20T12:17:42.538Z,1028.74
2017-12-20T12:18:52.023Z,1028.76
2017-12-20T12:20:01.514Z,1028.77
2017-12-20T12:21:10.802Z,1028.74
2017-12-20T12:22:20.566Z,1028.73
2017-12-20T12:23:29.254Z,1028.73
2017-12-20T12:24:38.209Z,1028.7
2017-12-20T12:25:47.441Z,1028.68
2017-12-20T12:26:56.428Z,1028.71
2017-12-20T12:28:05.391Z,1028.67
2017-12-20T12:29:14.870Z,1028.7
2017-12-20T12:30:24.132Z,1028.72
2017-12-20T12:31:33.353Z,1028.7
2017-12-20T12:32:42.034Z,1028.65
2017-12-20T12:33:50.998Z,1028.68
2017-12-20T12:35:00.525Z,1028.68
2017-12-20T12:36:09.215Z,1028.66
2017-12-20T12:37:17.892Z,1028.62
2017-12-20T12:38:27.138Z,1028.6
2017-12-20T12:39:36.114Z,1028.61
2017-12-20T12:40:44.805Z,1028.57
2017-12-20T12:41:53.853Z,1028.58
2017-12-20T12:43:03.328Z,1028.58
2017-12-20T12:44:13.091Z,1028.57
2017-12-20T12:45:21.794Z,1028.57
2017-12-20T12:46:30.744Z,1028.54
2017-12-20T12:47:39.953Z,1028.57
2017-12-20T12:48:48.985Z,1028.54
2017-12-20T12:49:57.928Z,1028.6
2017-12-20T12:51:07.137Z,1028.54
2017-12-20T12:52:15.836Z,1028.54
2017-12-20T12:53:25.308Z,1028.54
2017-12-20T12:54:34.536Z,1028.56
2017-12-20T12:55:43.566Z,1028.58
2017-12-20T12:56:53.312Z,1028.63
2017-12-20T12:58:02.827Z,1028.59
2017-12-20T12:59:12.398Z,1028.61
2017-12-20T13:00:21.620Z,1028.58
2017-12-20T13:01:30.555Z,1028.6
2017-12-20T13:02:39.499Z,1028.57
2017-12-20T13:03:48.456Z,1028.54
2017-12-20T13:04:57.140Z,1028.58
2017-12-20T13:06:06.103Z,1028.57
2017-12-20T13:07:15.060Z,1028.59
2017-12-20T13:08:23.742Z,1028.61
2017-12-20T13:09:32.964Z,1028.62
2017-12-20T13:10:41.929Z,1028.6
2017-12-20T13:11:50.941Z,1028.59
2017-12-20T13:12:59.904Z,1028.57
2017-12-20T13:14:08.884Z,1028.61
2017-12-20T13:15:18.104Z,1028.62
2017-12-20T13:16:27.055Z,1028.65
2017-12-20T13:17:36.059Z,1028.6
2017-12-20T13:18:45.806Z,1028.65
2017-12-20T13:19:54.746Z,1028.64
2017-12-20T13:21:04.262Z,1028.65
2017-12-20T13:22:13.736Z,1028.63
2017-12-20T13:23:22.717Z,1028.62
2017-12-20T13:24:31.681Z,1028.65
2017-12-20T13:25:41.210Z,1028.58
2017-12-20T13:26:50.160Z,1028.59
2017-12-20T13:27:59.122Z,1028.62
2017-12-20T13:29:08.405Z,1028.6
2017-12-20T13:30:17.610Z,1028.58
2017-12-20T13:31:26.841Z,1028.53
2017-12-20T13:32:36.343Z,1028.48
2017-12-20T13:33:45.549Z,1028.48
2017-12-20T13:34:55.023Z,1028.5
2017-12-20T13:36:04.763Z,1028.48
2017-12-20T13:37:13.970Z,1028.52
2017-12-20T13:38:23.239Z,1028.5
2017-12-20T13:39:31.920Z,1028.51
2017-12-20T13:40:40.893Z,1028.48
2017-12-20T13:41:50.383Z,1028.46
2017-12-20T13:42:59.589Z,1028.49
2017-12-20T13:44:08.802Z,1028.48
2017-12-20T13:45:17.736Z,1028.49
2017-12-20T13:46:26.685Z,1028.5
2017-12-20T13:47:35.683Z,1028.57
2017-12-20T13:48:44.372Z,1028.54
2017-12-20T13:49:53.309Z,1028.6
2017-12-20T13:51:02.785Z,1028.6
2017-12-20T13:52:11.470Z,1028.62
2017-12-20T13:53:20.699Z,1028.66
2017-12-20T13:54:30.194Z,1028.64
2017-12-20T13:55:39.411Z,1028.68
2017-12-20T13:56:48.400Z,1028.71
2017-12-20T13:57:57.873Z,1028.74
2017-12-20T13:59:07.378Z,1028.77